createdAt,value
2022-08-14T00:02:24.505Z,3.00
2022-08-14T00:07:30.823Z,2.30
2022-08-14T00:12:39.063Z,2.70
2022-08-14T00:17:48.150Z,2.60
2022-08-14T00:22:58.445Z,2.70
2022-08-14T00:28:03.401Z,2.30
2022-08-14T00:33:16.260Z,2.40
2022-08-14T00:38:21.815Z,2.70
2022-08-14T00:43:32.341Z,2.90
2022-08-14T00:48:38.472Z,2.40
2022-08-14T00:53:43.077Z,2.50
2022-08-14T00:58:48.423Z,2.50
2022-08-14T01:03:53.565Z,2.50
2022-08-14T01:08:59.269Z,2.60
2022-08-14T01:14:25.923Z,2.60
2022-08-14T01:19:48.024Z,2.40
2022-08-14T01:24:53.566Z,2.40
2022-08-14T01:30:03.758Z,2.30
2022-08-14T01:35:21.072Z,2.90
2022-08-14T01:40:36.672Z,2.70
2022-08-14T01:45:49.016Z,2.80
2022-08-14T01:51:04.089Z,2.40
2022-08-14T01:56:12.038Z,2.70
2022-08-14T02:01:21.830Z,2.70
2022-08-14T02:06:32.861Z,3.00
2022-08-14T02:11:37.397Z,2.20
2022-08-14T02:16:54.806Z,2.40
2022-08-14T02:22:02.690Z,2.40
2022-08-14T02:28:25.800Z,2.60
2022-08-14T02:32:36.506Z,2.50
2022-08-14T02:37:47.609Z,2.50
2022-08-14T02:42:55.338Z,2.00
2022-08-14T02:48:10.357Z,2.80
2022-08-14T02:53:31.441Z,2.90
2022-08-14T02:58:41.873Z,2.80
2022-08-14T03:03:50.244Z,2.40
2022-08-14T03:08:55.038Z,2.60
2022-08-14T03:14:01.474Z,2.80
2022-08-14T03:24:16.408Z,2.30
2022-08-14T03:29:27.857Z,2.50
2022-08-14T03:34:48.410Z,3.10
2022-08-14T03:39:56.240Z,3.00
2022-08-14T03:45:28.020Z,2.40
2022-08-14T03:50:27.949Z,3.00
2022-08-14T03:55:36.874Z,2.10
2022-08-14T04:00:44.622Z,2.50
2022-08-14T04:05:48.883Z,2.80
2022-08-14T04:10:52.745Z,2.60
2022-08-14T04:16:05.198Z,2.50
2022-08-14T04:26:27.216Z,2.50
2022-08-14T04:33:01.661Z,2.40
2022-08-14T04:37:25.397Z,2.10
2022-08-14T04:42:51.678Z,2.70
2022-08-14T04:48:39.214Z,2.40
2022-08-14T04:53:43.806Z,2.50
2022-08-14T04:58:48.672Z,2.50
2022-08-14T05:03:55.068Z,2.50
2022-08-14T05:09:00.580Z,2.30
2022-08-14T05:14:16.931Z,2.30
2022-08-14T05:19:29.850Z,2.50
2022-08-14T05:24:35.229Z,2.00
2022-08-14T05:29:47.892Z,2.40
2022-08-14T05:34:51.272Z,1.80
2022-08-14T05:50:02.846Z,2.00
2022-08-14T05:55:09.081Z,2.20
2022-08-14T06:00:13.307Z,2.10
2022-08-14T06:05:29.771Z,2.40
2022-08-14T06:10:33.083Z,1.70
2022-08-14T06:15:37.063Z,1.60
2022-08-14T06:20:40.728Z,1.70
2022-08-14T06:25:52.787Z,1.80
2022-08-14T06:30:57.183Z,1.80
2022-08-14T06:36:01.052Z,2.00
2022-08-14T06:46:23.080Z,2.40
2022-08-14T06:51:44.659Z,2.40
2022-08-14T06:56:54.325Z,2.10
2022-08-14T07:02:19.307Z,1.90
2022-08-14T07:07:23.025Z,2.00
2022-08-14T07:12:54.087Z,2.40
2022-08-14T07:17:51.891Z,2.10
2022-08-14T07:23:02.469Z,2.10
2022-08-14T07:28:12.879Z,2.20
2022-08-14T07:33:30.151Z,2.50
2022-08-14T07:38:37.827Z,2.50
2022-08-14T07:43:42.444Z,2.60
2022-08-14T07:48:46.447Z,1.90
2022-08-14T07:53:56.932Z,2.30
2022-08-14T07:59:00.850Z,2.30
2022-08-14T08:04:04.677Z,2.60
2022-08-14T08:09:32.018Z,2.80
2022-08-14T08:14:55.343Z,2.30
2022-08-14T08:20:00.483Z,2.60
2022-08-14T08:25:05.571Z,2.10
2022-08-14T08:30:20.125Z,3.00
2022-08-14T08:35:46.485Z,2.50
2022-08-14T08:40:52.546Z,2.90
2022-08-14T08:46:28.309Z,4.00
2022-08-14T08:51:34.796Z,2.80
2022-08-14T08:56:47.172Z,2.80
2022-08-14T09:02:01.997Z,3.00
2022-08-14T09:07:11.110Z,3.80
2022-08-14T09:12:15.192Z,3.30
2022-08-14T09:17:19.713Z,3.10
2022-08-14T09:22:34.915Z,3.20
2022-08-14T09:27:39.953Z,2.70
2022-08-14T09:32:59.464Z,3.10
2022-08-14T09:38:46.072Z,2.80
2022-08-14T09:44:29.010Z,3.00
2022-08-14T09:49:40.054Z,3.00
2022-08-14T09:54:46.695Z,2.50
2022-08-14T09:59:53.026Z,3.00
2022-08-14T10:05:10.274Z,2.90
2022-08-14T10:10:23.818Z,3.70
2022-08-14T10:15:30.274Z,3.10
2022-08-14T10:20:40.726Z,3.50
2022-08-14T10:25:51.003Z,3.20
2022-08-14T10:30:56.357Z,3.50
2022-08-14T10:36:03.849Z,3.80
2022-08-14T10:41:17.380Z,5.70
2022-08-14T10:47:40.777Z,3.90
2022-08-14T10:52:08.891Z,5.30
2022-08-14T10:57:12.307Z,3.30
2022-08-14T11:02:45.179Z,4.00
2022-08-14T11:07:56.590Z,3.90
2022-08-14T11:13:01.047Z,3.00
2022-08-14T11:18:08.862Z,3.50
2022-08-14T11:23:28.667Z,3.30
2022-08-14T11:28:47.032Z,3.60
2022-08-14T11:33:55.641Z,23.30
2022-08-14T11:38:58.867Z,3.50
2022-08-14T11:44:02.180Z,3.50
2022-08-14T11:49:10.904Z,3.40
2022-08-14T11:54:15.869Z,3.50
2022-08-14T11:59:26.585Z,4.00
2022-08-14T12:04:37.030Z,4.00
2022-08-14T12:09:42.989Z,3.30
2022-08-14T12:15:00.548Z,4.00
2022-08-14T12:20:06.833Z,3.70
2022-08-14T12:25:15.702Z,4.50
2022-08-14T12:30:42.396Z,4.40
2022-08-14T12:35:46.165Z,4.50
2022-08-14T12:40:51.567Z,4.20
2022-08-14T12:45:55.742Z,4.30
2022-08-14T12:50:59.055Z,4.50
2022-08-14T12:56:21.453Z,4.30
2022-08-14T13:01:59.674Z,4.00
2022-08-14T13:06:56.500Z,3.80
2022-08-14T13:12:35.003Z,3.60
2022-08-14T13:17:28.997Z,4.10
2022-08-14T13:22:45.173Z,4.30
2022-08-14T13:27:54.585Z,4.30
2022-08-14T13:32:58.588Z,3.70
2022-08-14T13:38:03.366Z,3.90
2022-08-14T13:43:09.344Z,3.80
2022-08-14T13:48:27.392Z,5.00
2022-08-14T13:54:07.110Z,4.70
2022-08-14T13:59:09.551Z,4.10
2022-08-14T14:04:19.047Z,4.30
2022-08-14T14:09:32.704Z,6.10
2022-08-14T14:14:51.873Z,5.00
2022-08-14T14:19:59.742Z,5.10
2022-08-14T14:25:03.487Z,5.00
2022-08-14T14:30:24.469Z,5.50
2022-08-14T14:35:34.669Z,4.40
2022-08-14T14:40:53.623Z,6.80
2022-08-14T14:46:00.657Z,3.20
2022-08-14T14:51:10.120Z,3.70
2022-08-14T14:56:47.177Z,3.70
2022-08-14T15:01:38.762Z,5.10
2022-08-14T15:06:47.833Z,4.60
2022-08-14T15:11:51.924Z,6.40
2022-08-14T15:16:55.132Z,4.00
2022-08-14T15:22:02.847Z,3.90
2022-08-14T15:27:07.080Z,4.80
2022-08-14T15:32:17.822Z,5.50
2022-08-14T15:37:32.876Z,4.70
2022-08-14T15:42:39.458Z,4.70
2022-08-14T15:47:43.017Z,4.20
2022-08-14T15:52:46.719Z,4.40
2022-08-14T15:58:03.300Z,5.10
2022-08-14T16:03:11.938Z,5.00
2022-08-14T16:08:26.589Z,4.50
2022-08-14T16:13:42.138Z,5.30
2022-08-14T16:23:53.802Z,5.30
2022-08-14T16:29:07.910Z,8.50
2022-08-14T16:34:43.727Z,10.50
2022-08-14T16:44:44.104Z,6.20
2022-08-14T16:50:03.404Z,6.00
2022-08-14T16:55:17.780Z,7.50
2022-08-14T17:00:43.600Z,7.80
2022-08-14T17:05:48.604Z,6.60
2022-08-14T17:10:52.193Z,6.00
2022-08-14T17:16:24.575Z,6.90
2022-08-14T17:26:44.710Z,11.60
2022-08-14T17:31:58.845Z,8.70
2022-08-14T17:37:05.321Z,9.90
2022-08-14T17:42:16.907Z,7.90
2022-08-14T17:47:37.075Z,8.90
2022-08-14T17:52:48.884Z,11.00
2022-08-14T17:57:54.874Z,10.80
2022-08-14T18:03:00.417Z,11.60
2022-08-14T18:08:32.978Z,10.60
2022-08-14T18:13:51.840Z,8.90
2022-08-14T18:18:56.376Z,8.30
2022-08-14T18:24:00.607Z,8.80
2022-08-14T18:29:09.896Z,8.40
2022-08-14T18:34:32.008Z,9.60
2022-08-14T18:40:01.405Z,9.80
2022-08-14T18:45:12.783Z,9.70
2022-08-14T18:50:27.644Z,10.30
2022-08-14T18:55:34.404Z,11.00
2022-08-14T19:00:40.377Z,11.80
2022-08-14T19:05:47.808Z,9.50
2022-08-14T19:10:59.505Z,10.70
2022-08-14T19:16:07.526Z,11.10
2022-08-14T19:21:33.762Z,11.10
2022-08-14T19:26:54.645Z,11.00
2022-08-14T19:32:00.499Z,11.50
2022-08-14T19:37:06.524Z,11.30
2022-08-14T19:42:28.180Z,10.80
2022-08-14T19:47:41.214Z,12.40
2022-08-14T19:52:45.964Z,10.70
2022-08-14T19:57:58.819Z,10.90
2022-08-14T20:03:11.012Z,12.20
2022-08-14T20:09:06.468Z,10.70
2022-08-14T20:13:40.849Z,12.70
2022-08-14T20:18:51.946Z,12.40
2022-08-14T20:24:31.113Z,11.90
2022-08-14T20:29:38.982Z,10.40
2022-08-14T20:34:51.373Z,10.90
2022-08-14T20:39:55.848Z,10.20
2022-08-14T20:45:23.666Z,10.20
2022-08-14T20:50:29.776Z,11.20
2022-08-14T20:55:41.571Z,10.10
2022-08-14T21:00:58.090Z,11.40
2022-08-14T21:06:16.046Z,11.30
2022-08-14T21:11:24.170Z,10.80
2022-08-14T21:16:35.176Z,10.50
2022-08-14T21:21:45.522Z,10.50
2022-08-14T21:27:12.195Z,10.70
2022-08-14T21:32:33.655Z,10.70
2022-08-14T21:37:47.509Z,9.30
2022-08-14T21:47:56.778Z,9.10
2022-08-14T21:53:03.788Z,8.60
2022-08-14T21:58:51.734Z,9.20
2022-08-14T22:03:35.481Z,10.50
2022-08-14T22:08:39.818Z,9.00
2022-08-14T22:13:49.584Z,8.50
2022-08-14T22:24:01.016Z,9.80
2022-08-14T22:29:16.718Z,10.10
2022-08-14T22:34:20.688Z,9.80
2022-08-14T22:40:16.858Z,9.10
2022-08-14T22:44:56.690Z,9.60
2022-08-14T22:50:31.116Z,8.40
2022-08-14T22:55:23.857Z,9.10
2022-08-14T23:00:30.391Z,8.50
2022-08-14T23:05:39.937Z,9.30
2022-08-14T23:10:54.939Z,9.30
2022-08-14T23:15:59.176Z,10.20
2022-08-14T23:21:02.437Z,9.20
2022-08-14T23:26:49.628Z,9.10
2022-08-14T23:31:35.654Z,9.10
2022-08-14T23:36:54.154Z,9.20
2022-08-14T23:42:09.840Z,8.80
2022-08-14T23:47:26.509Z,8.70
2022-08-14T23:52:56.133Z,8.30
2022-08-14T23:58:01.569Z,8.90
